createdAt,value
2019-02-19T00:01:30.101Z,4.70
2019-02-19T00:03:58.600Z,4.60
2019-02-19T00:06:26.934Z,4.60
2019-02-19T00:08:55.108Z,4.50
2019-02-19T00:11:23.345Z,4.50
2019-02-19T00:13:51.605Z,4.50
2019-02-19T00:16:19.828Z,4.40
2019-02-19T00:18:48.151Z,4.40
2019-02-19T00:21:16.382Z,4.40
2019-02-19T00:23:44.676Z,4.40
2019-02-19T00:26:17.261Z,4.40
2019-02-19T00:28:45.601Z,4.30
2019-02-19T00:31:13.838Z,4.20
2019-02-19T00:33:42.016Z,4.20
2019-02-19T00:36:10.367Z,4.10
2019-02-19T00:38:38.613Z,4.10
2019-02-19T00:41:06.861Z,4.10
2019-02-19T00:43:35.068Z,4.00
2019-02-19T00:46:03.278Z,4.00
2019-02-19T00:48:31.638Z,4.00
2019-02-19T00:50:59.842Z,4.10
2019-02-19T00:53:28.119Z,4.00
2019-02-19T00:55:56.327Z,4.00
2019-02-19T00:58:24.679Z,4.00
2019-02-19T01:00:53.166Z,3.90
2019-02-19T01:03:21.336Z,3.90
2019-02-19T01:05:50.508Z,3.90
2019-02-19T01:08:18.740Z,3.80
2019-02-19T01:10:46.929Z,3.80
2019-02-19T01:13:15.127Z,3.80
2019-02-19T01:15:43.418Z,3.80
2019-02-19T01:18:11.601Z,3.80
2019-02-19T01:20:39.840Z,3.70
2019-02-19T01:23:08.260Z,3.70
2019-02-19T01:25:36.476Z,3.70
2019-02-19T01:28:04.715Z,3.70
2019-02-19T01:30:32.956Z,3.80
2019-02-19T01:33:02.471Z,3.80
2019-02-19T01:35:30.770Z,3.80
2019-02-19T01:37:59.049Z,3.70
2019-02-19T01:40:27.248Z,3.70
2019-02-19T01:42:55.434Z,3.70
2019-02-19T01:45:23.628Z,3.60
2019-02-19T01:47:52.129Z,3.60
2019-02-19T01:50:20.755Z,3.60
2019-02-19T01:52:49.451Z,3.50
2019-02-19T01:55:17.836Z,3.40
2019-02-19T01:57:46.370Z,3.40
2019-02-19T02:00:15.003Z,3.40
2019-02-19T02:02:43.348Z,3.40
2019-02-19T02:05:11.714Z,3.30
2019-02-19T02:07:40.394Z,3.30
2019-02-19T02:10:08.743Z,3.30
2019-02-19T02:12:37.149Z,3.30
2019-02-19T02:15:05.900Z,3.30
2019-02-19T02:17:34.619Z,3.30
2019-02-19T02:20:02.903Z,3.30
2019-02-19T02:22:31.182Z,3.30
2019-02-19T02:24:59.366Z,3.20
2019-02-19T02:27:27.620Z,3.20
2019-02-19T02:29:56.065Z,3.20
2019-02-19T02:32:24.859Z,3.20
2019-02-19T02:34:53.183Z,3.20
2019-02-19T02:37:21.508Z,3.10
2019-02-19T02:39:50.188Z,3.10
2019-02-19T02:42:18.469Z,3.00
2019-02-19T02:44:46.710Z,3.10
2019-02-19T02:47:15.342Z,3.10
2019-02-19T02:49:43.757Z,3.10
2019-02-19T02:52:11.971Z,3.00
2019-02-19T02:54:40.530Z,3.10
2019-02-19T02:57:09.262Z,3.00
2019-02-19T02:59:37.679Z,3.10
2019-02-19T03:02:05.906Z,3.00
2019-02-19T03:04:34.172Z,3.00
2019-02-19T03:07:31.168Z,3.00
2019-02-19T03:09:59.447Z,3.00
2019-02-19T03:12:27.657Z,2.90
2019-02-19T03:14:55.887Z,2.90
2019-02-19T03:17:24.147Z,3.00
2019-02-19T03:19:52.340Z,3.00
2019-02-19T03:22:20.895Z,2.90
2019-02-19T03:24:49.216Z,2.80
2019-02-19T03:27:17.657Z,2.90
2019-02-19T03:29:45.840Z,2.80
2019-02-19T03:32:14.007Z,2.80
2019-02-19T03:34:42.257Z,2.80
2019-02-19T03:37:10.560Z,2.70
2019-02-19T03:39:39.585Z,2.70
2019-02-19T03:42:09.877Z,2.70
2019-02-19T03:44:38.122Z,2.70
2019-02-19T03:47:06.286Z,2.70
2019-02-19T03:49:34.571Z,2.70
2019-02-19T03:52:02.872Z,2.60
2019-02-19T03:54:31.071Z,2.60
2019-02-19T03:56:59.364Z,2.60
2019-02-19T03:59:27.598Z,2.60
2019-02-19T04:01:55.773Z,2.60
2019-02-19T04:04:24.096Z,2.60
2019-02-19T04:06:52.759Z,2.40
2019-02-19T04:09:21.026Z,2.40
2019-02-19T04:11:49.395Z,2.40
2019-02-19T04:14:17.621Z,2.40
2019-02-19T04:16:45.856Z,2.40
2019-02-19T04:19:14.030Z,2.30
2019-02-19T04:21:42.655Z,2.40
2019-02-19T04:24:10.893Z,2.40
2019-02-19T04:26:39.243Z,2.30
2019-02-19T04:29:07.523Z,2.30
2019-02-19T04:31:35.699Z,2.40
2019-02-19T04:34:03.975Z,2.30
2019-02-19T04:36:32.260Z,2.30
2019-02-19T04:39:02.180Z,2.30
2019-02-19T04:41:30.581Z,2.30
2019-02-19T04:43:58.885Z,2.30
2019-02-19T04:46:31.590Z,2.30
2019-02-19T04:48:57.589Z,2.20
2019-02-19T04:51:25.923Z,2.20
2019-02-19T04:53:54.186Z,2.20
2019-02-19T04:56:24.055Z,2.20
2019-02-19T04:58:52.908Z,2.10
2019-02-19T05:01:21.179Z,2.10
2019-02-19T05:03:49.396Z,2.10
2019-02-19T05:06:17.609Z,2.10
2019-02-19T05:08:45.850Z,2.00
2019-02-19T05:11:14.069Z,2.00
2019-02-19T05:13:42.267Z,2.00
2019-02-19T05:16:10.435Z,1.90
2019-02-19T05:18:38.641Z,1.90
2019-02-19T05:21:07.294Z,1.90
2019-02-19T05:23:35.814Z,1.90
2019-02-19T05:26:04.537Z,1.90
2019-02-19T05:28:33.211Z,1.90
2019-02-19T05:31:01.354Z,1.90
2019-02-19T05:33:29.522Z,1.80
2019-02-19T05:35:57.735Z,1.80
2019-02-19T05:38:25.952Z,1.80
2019-02-19T05:40:54.414Z,1.80
2019-02-19T05:43:22.599Z,1.80
2019-02-19T05:45:51.215Z,1.80
2019-02-19T05:48:20.034Z,1.80
2019-02-19T05:50:48.933Z,1.80
2019-02-19T05:53:17.751Z,1.80
2019-02-19T05:55:45.944Z,1.80
2019-02-19T05:58:14.595Z,1.80
2019-02-19T06:00:43.153Z,1.70
2019-02-19T06:03:17.173Z,1.70
2019-02-19T06:05:45.412Z,1.70
2019-02-19T06:08:13.673Z,1.80
2019-02-19T06:10:41.950Z,1.90
2019-02-19T06:13:10.182Z,1.90
2019-02-19T06:15:38.535Z,1.90
2019-02-19T06:18:06.966Z,1.90
2019-02-19T06:20:35.632Z,1.80
2019-02-19T06:23:04.216Z,1.90
2019-02-19T06:25:32.619Z,1.90
2019-02-19T06:28:01.362Z,1.90
2019-02-19T06:30:29.541Z,1.90
2019-02-19T06:32:57.929Z,1.90
2019-02-19T06:35:26.197Z,1.90
2019-02-19T06:37:54.527Z,2.00
2019-02-19T06:40:28.114Z,2.10
2019-02-19T06:42:56.590Z,2.20
2019-02-19T06:45:25.028Z,2.20
2019-02-19T06:47:53.678Z,2.30
2019-02-19T06:50:22.392Z,2.60
2019-02-19T06:52:50.735Z,3.40
2019-02-19T06:55:18.874Z,4.40
2019-02-19T06:57:47.116Z,5.30
2019-02-19T07:00:15.851Z,5.80
2019-02-19T07:03:12.827Z,5.90
2019-02-19T07:05:41.391Z,5.80
2019-02-19T07:08:09.737Z,5.40
2019-02-19T07:10:37.881Z,5.10
2019-02-19T07:13:06.288Z,4.70
2019-02-19T07:15:35.008Z,4.40
2019-02-19T07:18:03.284Z,4.30
2019-02-19T07:20:31.482Z,4.20
2019-02-19T07:22:59.717Z,4.20
2019-02-19T07:25:27.911Z,4.20
2019-02-19T07:27:56.302Z,4.30
2019-02-19T07:30:24.466Z,4.40
2019-02-19T07:32:52.690Z,4.40
2019-02-19T07:35:20.914Z,4.50
2019-02-19T07:37:49.143Z,4.70
2019-02-19T07:40:17.578Z,5.10
2019-02-19T07:42:46.271Z,5.80
2019-02-19T07:45:14.486Z,7.00
2019-02-19T07:47:42.763Z,8.30
2019-02-19T07:50:10.967Z,9.70
2019-02-19T07:52:39.223Z,10.80
2019-02-19T07:55:07.875Z,11.40
2019-02-19T07:57:36.057Z,12.00
2019-02-19T08:00:04.703Z,12.40
2019-02-19T08:02:32.966Z,13.30
2019-02-19T08:05:01.639Z,13.60
2019-02-19T08:07:29.874Z,14.30
2019-02-19T08:09:58.117Z,14.40
2019-02-19T08:12:26.394Z,14.50
2019-02-19T08:14:54.566Z,15.20
2019-02-19T08:17:22.709Z,15.60
2019-02-19T08:19:50.969Z,15.80
2019-02-19T08:22:19.273Z,15.90
2019-02-19T08:24:47.463Z,16.30
2019-02-19T08:27:15.716Z,16.80
2019-02-19T08:29:44.299Z,17.20
2019-02-19T08:32:13.506Z,18.10
2019-02-19T08:34:42.091Z,18.50
2019-02-19T08:37:10.350Z,18.70
2019-02-19T08:39:38.697Z,18.80
2019-02-19T08:42:06.916Z,19.50
2019-02-19T08:44:35.729Z,19.80
2019-02-19T08:47:03.986Z,19.40
2019-02-19T08:49:32.274Z,19.60
2019-02-19T08:52:02.077Z,19.60
2019-02-19T08:54:30.288Z,20.10
2019-02-19T08:56:58.523Z,20.00
2019-02-19T08:59:26.812Z,19.90
2019-02-19T09:01:55.096Z,19.90
2019-02-19T09:04:23.312Z,20.20
2019-02-19T09:06:51.718Z,20.30
2019-02-19T09:09:19.998Z,20.90
2019-02-19T09:11:48.161Z,20.60
2019-02-19T09:14:16.564Z,21.10
2019-02-19T09:16:44.990Z,21.70
2019-02-19T09:19:13.345Z,21.40
2019-02-19T09:21:41.551Z,20.80
2019-02-19T09:24:09.927Z,21.60
2019-02-19T09:26:38.080Z,22.40
2019-02-19T09:29:06.383Z,22.50
2019-02-19T09:31:34.587Z,22.70
2019-02-19T09:34:04.303Z,23.30
2019-02-19T09:36:32.639Z,22.90
2019-02-19T09:39:01.142Z,22.80
2019-02-19T09:41:29.831Z,22.80
2019-02-19T09:43:58.225Z,23.00
2019-02-19T09:46:26.488Z,22.90
2019-02-19T09:48:54.725Z,23.20
2019-02-19T09:51:23.115Z,23.40
2019-02-19T09:53:51.533Z,23.50
2019-02-19T09:56:20.249Z,23.90
2019-02-19T09:58:48.679Z,23.60
2019-02-19T10:01:16.969Z,24.00
2019-02-19T10:03:45.283Z,24.20
2019-02-19T10:06:13.656Z,24.80
2019-02-19T10:08:41.966Z,24.40
2019-02-19T10:11:10.405Z,24.40
2019-02-19T10:13:41.705Z,24.90
2019-02-19T10:16:09.955Z,24.30
2019-02-19T10:18:38.833Z,23.90
2019-02-19T10:21:07.602Z,23.90
2019-02-19T10:23:36.352Z,24.30
2019-02-19T10:26:04.700Z,25.00
2019-02-19T10:28:32.979Z,24.60
2019-02-19T10:31:01.349Z,24.70
2019-02-19T10:33:29.899Z,24.60
2019-02-19T10:35:58.188Z,23.70
2019-02-19T10:38:26.544Z,23.90
2019-02-19T10:40:57.775Z,24.60
2019-02-19T10:43:26.165Z,24.50
2019-02-19T10:45:54.399Z,23.90
2019-02-19T10:48:23.458Z,24.60
2019-02-19T10:50:51.801Z,25.40
2019-02-19T10:53:20.383Z,25.20
2019-02-19T10:55:48.693Z,25.20
2019-02-19T10:58:23.042Z,24.80
2019-02-19T11:00:47.471Z,24.50
2019-02-19T11:03:15.911Z,24.00
2019-02-19T11:05:44.229Z,24.60
2019-02-19T11:08:12.559Z,24.40
2019-02-19T11:10:40.828Z,23.90
2019-02-19T11:13:09.540Z,24.00
2019-02-19T11:15:37.997Z,25.10
2019-02-19T11:18:06.333Z,24.80
2019-02-19T11:20:37.163Z,24.80
2019-02-19T11:23:05.718Z,25.00
2019-02-19T11:25:34.065Z,24.50
2019-02-19T11:28:02.397Z,24.10
2019-02-19T11:30:30.822Z,23.70
2019-02-19T11:32:59.244Z,23.70
2019-02-19T11:35:27.631Z,23.30
2019-02-19T11:37:56.094Z,23.00
2019-02-19T11:40:24.689Z,23.40
2019-02-19T11:42:53.531Z,23.40
2019-02-19T11:45:22.366Z,23.00
2019-02-19T11:47:50.708Z,23.40
2019-02-19T11:50:19.436Z,23.90
2019-02-19T11:52:47.707Z,23.80
2019-02-19T11:55:16.394Z,24.00
2019-02-19T11:57:44.667Z,23.40
2019-02-19T12:00:16.546Z,23.30
2019-02-19T12:02:44.804Z,23.40
2019-02-19T12:05:13.196Z,23.50
2019-02-19T12:07:41.552Z,23.60
2019-02-19T12:10:11.949Z,24.00
2019-02-19T12:12:40.026Z,24.40
2019-02-19T12:15:08.596Z,23.70
2019-02-19T12:17:36.966Z,23.20
2019-02-19T12:20:05.394Z,22.70
2019-02-19T12:22:33.857Z,22.70
2019-02-19T12:25:02.459Z,22.20
2019-02-19T12:27:31.009Z,22.20
2019-02-19T12:29:59.315Z,22.30
2019-02-19T12:32:27.694Z,22.30
2019-02-19T12:34:56.017Z,22.10
2019-02-19T12:37:24.280Z,21.90
2019-02-19T12:39:52.729Z,22.00
2019-02-19T12:42:24.113Z,21.90
2019-02-19T12:44:52.520Z,21.50
2019-02-19T12:47:20.769Z,20.90
2019-02-19T12:49:49.131Z,20.60
2019-02-19T12:52:17.353Z,20.70
2019-02-19T12:54:48.076Z,21.30
2019-02-19T12:57:16.478Z,20.80
2019-02-19T12:59:45.004Z,20.40
2019-02-19T13:02:13.288Z,20.40
2019-02-19T13:04:41.676Z,20.70
2019-02-19T13:07:10.096Z,20.40
2019-02-19T13:09:38.486Z,20.20
2019-02-19T13:12:06.981Z,20.20
2019-02-19T13:14:35.886Z,20.30
2019-02-19T13:17:04.279Z,20.10
2019-02-19T13:19:32.607Z,20.00
2019-02-19T13:22:03.420Z,20.10
2019-02-19T13:24:32.493Z,19.90
2019-02-19T13:27:01.411Z,19.60
2019-02-19T13:29:29.962Z,19.50
2019-02-19T13:31:58.390Z,19.30
2019-02-19T13:34:27.117Z,19.00
2019-02-19T13:36:55.408Z,19.00
2019-02-19T13:39:23.772Z,19.10
2019-02-19T13:41:52.044Z,19.10
2019-02-19T13:44:20.418Z,19.00
2019-02-19T13:46:48.711Z,19.00
2019-02-19T13:49:16.984Z,18.80
2019-02-19T13:51:45.301Z,18.70
2019-02-19T13:54:51.193Z,18.40
2019-02-19T13:57:19.517Z,18.10
2019-02-19T13:59:47.796Z,18.00
2019-02-19T14:02:16.253Z,18.00
2019-02-19T14:04:44.646Z,17.80
2019-02-19T14:07:12.904Z,17.70
2019-02-19T14:09:41.313Z,17.60
2019-02-19T14:12:09.825Z,17.30
2019-02-19T14:14:45.874Z,17.40
2019-02-19T14:17:16.679Z,17.40
2019-02-19T14:19:52.329Z,17.30
2019-02-19T14:22:38.968Z,17.20
2019-02-19T14:25:26.028Z,17.10
2019-02-19T14:28:23.146Z,17.00
2019-02-19T14:31:09.879Z,17.10
2019-02-19T14:34:03.717Z,17.40
2019-02-19T14:36:42.895Z,17.20
2019-02-19T14:39:42.709Z,17.30
2019-02-19T14:42:48.504Z,17.10
2019-02-19T14:45:36.419Z,17.00
2019-02-19T14:48:33.267Z,16.80
2019-02-19T14:51:22.503Z,16.80
2019-02-19T14:54:21.676Z,16.80
2019-02-19T14:57:12.815Z,16.50
2019-02-19T14:59:59.183Z,16.10
2019-02-19T15:02:47.500Z,16.10
2019-02-19T15:05:50.678Z,15.70
2019-02-19T15:08:41.368Z,15.70
2019-02-19T15:11:29.115Z,15.70
2019-02-19T15:14:17.122Z,15.50
2019-02-19T15:17:10.812Z,15.50
2019-02-19T15:20:00.959Z,15.20
2019-02-19T15:22:57.592Z,15.10
2019-02-19T15:25:56.600Z,15.00
2019-02-19T15:28:43.230Z,15.00
2019-02-19T15:31:29.634Z,15.00
2019-02-19T15:34:15.971Z,14.80
2019-02-19T15:37:22.032Z,14.70
2019-02-19T15:40:08.123Z,14.90
2019-02-19T15:43:10.935Z,14.90
2019-02-19T15:46:08.523Z,14.60
2019-02-19T15:48:58.249Z,14.50
2019-02-19T15:51:54.869Z,14.40
2019-02-19T15:54:51.962Z,14.40
2019-02-19T15:57:42.389Z,14.20
2019-02-19T16:00:33.133Z,14.30
2019-02-19T16:03:09.802Z,14.20
2019-02-19T16:06:03.600Z,14.10
2019-02-19T16:08:41.091Z,14.00
2019-02-19T16:11:28.447Z,14.00
2019-02-19T16:14:22.567Z,13.90
2019-02-19T16:17:25.761Z,13.80
2019-02-19T16:20:13.712Z,13.60
2019-02-19T16:23:00.407Z,13.60
2019-02-19T16:25:40.213Z,13.50
2019-02-19T16:28:34.100Z,13.40
2019-02-19T16:31:30.772Z,13.40
2019-02-19T16:34:28.069Z,13.30
2019-02-19T16:37:18.661Z,13.30
2019-02-19T16:40:09.030Z,13.20
2019-02-19T16:42:57.735Z,13.10
2019-02-19T16:45:35.383Z,13.10
2019-02-19T16:48:22.417Z,13.00
2019-02-19T16:50:59.794Z,13.00
2019-02-19T16:53:46.037Z,13.00
2019-02-19T16:56:42.365Z,12.90
2019-02-19T16:59:33.177Z,12.70
2019-02-19T17:02:32.684Z,12.60
2019-02-19T17:05:23.586Z,12.50
2019-02-19T17:08:28.873Z,12.40
2019-02-19T17:11:25.949Z,12.40
2019-02-19T17:14:12.203Z,12.30
2019-02-19T17:17:15.190Z,12.30
2019-02-19T17:19:56.452Z,12.10
2019-02-19T17:22:35.611Z,12.00
2019-02-19T17:25:16.619Z,12.10
2019-02-19T17:27:51.603Z,12.00
2019-02-19T17:30:38.523Z,11.90
2019-02-19T17:33:34.425Z,11.90
2019-02-19T17:36:25.458Z,11.80
2019-02-19T17:39:16.626Z,11.80
2019-02-19T17:42:04.677Z,11.80
2019-02-19T17:44:51.429Z,11.90
2019-02-19T17:47:42.583Z,11.80
2019-02-19T17:50:37.951Z,11.70
2019-02-19T17:53:18.927Z,11.70
2019-02-19T17:56:04.077Z,11.70
2019-02-19T17:58:57.851Z,11.70
2019-02-19T18:01:48.730Z,11.60
2019-02-19T18:04:39.147Z,11.60
2019-02-19T18:07:35.200Z,11.50
2019-02-19T18:10:23.375Z,11.60
2019-02-19T18:13:10.728Z,11.50
2019-02-19T18:15:54.698Z,11.40
2019-02-19T18:18:41.211Z,11.30
2019-02-19T18:21:09.812Z,11.20
2019-02-19T18:23:38.769Z,11.10
2019-02-19T18:26:07.677Z,11.20
2019-02-19T18:28:36.213Z,11.10
2019-02-19T18:31:04.719Z,11.10
2019-02-19T18:33:33.084Z,11.10
2019-02-19T18:36:01.674Z,11.10
2019-02-19T18:38:31.666Z,11.00
2019-02-19T18:41:00.830Z,10.90
2019-02-19T18:43:29.182Z,10.90
2019-02-19T18:45:57.659Z,10.70
2019-02-19T18:48:26.092Z,10.70
2019-02-19T18:50:58.467Z,10.60
2019-02-19T18:53:24.903Z,10.60
2019-02-19T18:55:53.551Z,10.50
2019-02-19T18:58:21.883Z,10.50
2019-02-19T19:00:50.285Z,10.40
2019-02-19T19:03:18.492Z,10.30
2019-02-19T19:05:47.175Z,10.30
2019-02-19T19:08:15.527Z,10.20
2019-02-19T19:10:46.921Z,10.20
2019-02-19T19:13:15.522Z,10.20
2019-02-19T19:15:45.541Z,10.10
2019-02-19T19:18:14.222Z,10.10
2019-02-19T19:20:42.809Z,10.10
2019-02-19T19:23:11.734Z,9.90
2019-02-19T19:25:40.418Z,9.80
2019-02-19T19:28:08.826Z,9.70
2019-02-19T19:30:36.981Z,9.70
2019-02-19T19:33:06.084Z,9.70
2019-02-19T19:35:34.380Z,9.70
2019-02-19T19:38:02.575Z,9.80
2019-02-19T19:40:30.884Z,9.90
2019-02-19T19:42:59.161Z,9.90
2019-02-19T19:45:27.438Z,9.80
2019-02-19T19:47:55.660Z,9.80
2019-02-19T19:50:23.977Z,9.80
2019-02-19T19:52:52.241Z,9.90
2019-02-19T19:55:20.447Z,9.90
2019-02-19T19:57:48.694Z,9.90
2019-02-19T20:00:17.127Z,9.90
2019-02-19T20:02:45.384Z,9.80
2019-02-19T20:05:13.634Z,9.70
2019-02-19T20:07:41.831Z,9.70
2019-02-19T20:10:10.138Z,9.60
2019-02-19T20:12:38.415Z,9.50
2019-02-19T20:15:07.594Z,9.40
2019-02-19T20:17:35.849Z,9.40
2019-02-19T20:20:05.127Z,9.30
2019-02-19T20:22:33.373Z,9.20
2019-02-19T20:25:02.434Z,9.20
2019-02-19T20:27:30.658Z,9.30
2019-02-19T20:29:58.872Z,9.30
2019-02-19T20:32:27.073Z,9.30
2019-02-19T20:34:55.299Z,9.20
2019-02-19T20:37:23.502Z,9.10
2019-02-19T20:39:51.691Z,9.10
2019-02-19T20:42:19.918Z,9.10
2019-02-19T20:44:48.088Z,9.10
2019-02-19T20:47:16.372Z,9.00
2019-02-19T20:49:44.563Z,9.00
2019-02-19T20:52:12.742Z,9.00
2019-02-19T20:54:40.922Z,9.00
2019-02-19T20:57:09.222Z,9.00
2019-02-19T20:59:37.464Z,9.00
2019-02-19T21:02:05.648Z,8.90
2019-02-19T21:04:33.873Z,8.80
2019-02-19T21:07:02.055Z,8.90
2019-02-19T21:09:30.291Z,8.80
2019-02-19T21:11:58.453Z,8.80
2019-02-19T21:14:26.677Z,8.80
2019-02-19T21:16:54.887Z,8.80
2019-02-19T21:19:23.161Z,8.80
2019-02-19T21:21:51.345Z,8.80
2019-02-19T21:24:19.629Z,8.80
2019-02-19T21:26:47.807Z,8.80
2019-02-19T21:29:15.978Z,8.80
2019-02-19T21:31:44.286Z,8.80
2019-02-19T21:34:12.425Z,8.70
2019-02-19T21:36:40.701Z,8.70
2019-02-19T21:39:08.974Z,8.70
2019-02-19T21:41:37.176Z,8.70
2019-02-19T21:44:05.369Z,8.60
2019-02-19T21:46:34.024Z,8.50
2019-02-19T21:49:02.318Z,8.50
2019-02-19T21:51:30.434Z,8.50
2019-02-19T21:53:58.687Z,8.40
2019-02-19T21:56:26.883Z,8.40
2019-02-19T21:58:55.039Z,8.30
2019-02-19T22:01:23.221Z,8.30
2019-02-19T22:03:51.390Z,8.20
2019-02-19T22:06:19.600Z,8.20
2019-02-19T22:08:47.785Z,8.20
2019-02-19T22:11:16.014Z,8.20
2019-02-19T22:13:44.202Z,8.30
2019-02-19T22:16:12.458Z,8.30
2019-02-19T22:18:40.603Z,8.30
2019-02-19T22:21:23.511Z,8.40
2019-02-19T22:23:51.729Z,8.40
2019-02-19T22:26:19.884Z,8.30
2019-02-19T22:28:48.075Z,8.30
2019-02-19T22:31:16.320Z,8.30
2019-02-19T22:33:44.527Z,8.30
2019-02-19T22:36:12.751Z,8.30
2019-02-19T22:38:40.977Z,8.30
2019-02-19T22:41:09.328Z,8.30
2019-02-19T22:43:37.522Z,8.20
2019-02-19T22:46:05.867Z,8.10
2019-02-19T22:48:34.127Z,8.10
2019-02-19T22:51:02.302Z,8.10
2019-02-19T22:53:56.020Z,8.10
2019-02-19T22:56:27.312Z,8.10
2019-02-19T22:58:55.580Z,8.00
2019-02-19T23:01:32.588Z,8.00
2019-02-19T23:04:02.153Z,7.90
2019-02-19T23:06:30.412Z,7.90
2019-02-19T23:08:58.809Z,7.80
2019-02-19T23:11:26.991Z,7.80
2019-02-19T23:13:55.220Z,7.90
2019-02-19T23:16:23.543Z,7.90
2019-02-19T23:18:51.714Z,7.80
2019-02-19T23:21:19.926Z,7.90
2019-02-19T23:23:48.159Z,7.90
2019-02-19T23:26:16.377Z,7.80
2019-02-19T23:28:44.600Z,7.90
2019-02-19T23:31:12.816Z,7.90
2019-02-19T23:33:41.038Z,7.80
2019-02-19T23:36:37.600Z,7.90
2019-02-19T23:39:06.735Z,7.90
2019-02-19T23:41:34.989Z,7.90
2019-02-19T23:44:03.266Z,7.90
2019-02-19T23:46:31.601Z,7.90
2019-02-19T23:48:59.817Z,7.90
2019-02-19T23:51:28.032Z,7.90
2019-02-19T23:53:56.276Z,8.00
2019-02-19T23:56:24.553Z,7.90
2019-02-19T23:58:52.769Z,7.80
